Time;durP1;ratioP1;P1;durP2;ratioP2;P2;SDS_P1;SDS_P2;PMS_P1;PMS_P2;Temp;Humidity;BMP_temperature;BMP_pressure;BME280_temperature;BME280_humidity;BME280_pressure;Samples;Min_cycle;Max_cycle;Signal;HPM_P1;HPM_P2
2022/03/23 00:02:26;;;;;;;34.47;17.85;;;;;;;9.11;100.00;102556.47;5072422;28;20048;-91
2022/03/23 00:04:53;;;;;;;48.90;22.45;;;;;;;9.00;100.00;102567.84;5073812;28;20053;-91
2022/03/23 00:07:21;;;;;;;42.95;22.20;;;;;;;8.96;100.00;102574.81;5073621;28;20144;-91
2022/03/23 00:09:48;;;;;;;40.58;20.08;;;;;;;8.84;100.00;102549.56;5076474;28;20050;-91
2022/03/23 00:12:22;;;;;;;40.20;20.63;;;;;;;8.84;100.00;102561.75;5068596;28;20161;-91
2022/03/23 00:14:49;;;;;;;36.13;19.17;;;;;;;8.92;100.00;102555.66;5067721;28;20048;-91
2022/03/23 00:17:16;;;;;;;36.83;16.48;;;;;;;8.68;100.00;102537.41;5054597;28;20060;-91
2022/03/23 00:19:44;;;;;;;41.35;20.52;;;;;;;8.51;100.00;102527.81;5054502;28;20123;-91
2022/03/23 00:22:11;;;;;;;48.00;22.42;;;;;;;8.54;100.00;102534.78;5061511;28;20052;-91
2022/03/23 00:24:38;;;;;;;47.53;22.40;;;;;;;8.70;100.00;102554.78;5076293;28;20048;-90
2022/03/23 00:27:04;;;;;;;41.38;20.30;;;;;;;8.66;100.00;102545.22;5074725;28;20074;-90
2022/03/23 00:29:31;;;;;;;34.65;18.00;;;;;;;8.81;100.00;102553.91;5075676;28;20135;-90
2022/03/23 00:31:58;;;;;;;48.08;20.85;;;;;;;8.82;100.00;102555.63;5074514;28;20066;-90
2022/03/23 00:34:25;;;;;;;45.67;23.60;;;;;;;8.71;100.00;102529.53;5073593;28;20051;-91
2022/03/23 00:36:52;;;;;;;38.70;18.33;;;;;;;8.82;100.00;102534.75;5074468;28;20127;-90
2022/03/23 00:39:20;;;;;;;37.65;18.13;;;;;;;8.78;100.00;102536.50;5075818;28;20490;-90
2022/03/23 00:41:49;;;;;;;42.17;21.75;;;;;;;8.92;100.00;102550.44;5075027;28;20057;-90
2022/03/23 00:44:16;;;;;;;31.60;14.85;;;;;;;8.87;100.00;102530.38;5074493;28;20078;-90
2022/03/23 00:46:43;;;;;;;55.08;25.15;;;;;;;8.70;100.00;102512.16;5070860;28;20044;-90
2022/03/23 00:49:10;;;;;;;42.13;19.60;;;;;;;8.89;100.00;102542.59;5074182;28;20048;-90
2022/03/23 00:51:37;;;;;;;45.03;20.30;;;;;;;8.93;100.00;102553.91;5074246;28;20055;-90
2022/03/23 00:54:04;;;;;;;39.53;18.73;;;;;;;9.13;100.00;102565.16;5073949;28;20052;-90
2022/03/23 00:56:31;;;;;;;33.50;16.75;;;;;;;9.04;100.00;102559.09;5070496;28;20051;-90
2022/03/23 00:58:57;;;;;;;37.42;17.88;;;;;;;9.13;100.00;102564.31;5055078;28;20135;-90
2022/03/23 01:01:24;;;;;;;34.22;16.67;;;;;;;9.05;100.00;102553.88;5055188;28;20053;-90
2022/03/23 01:03:51;;;;;;;40.53;20.25;;;;;;;9.02;100.00;102545.19;5072925;28;20056;-91
2022/03/23 01:06:18;;;;;;;48.08;22.02;;;;;;;9.16;100.00;102566.06;5053826;28;20049;-91
2022/03/23 01:08:44;;;;;;;36.90;16.65;;;;;;;9.01;100.00;102549.53;5053699;28;20052;-90
2022/03/23 01:11:11;;;;;;;30.83;14.38;;;;;;;9.16;100.00;102559.06;5063749;28;20045;-91
2022/03/23 01:13:38;;;;;;;33.50;15.93;;;;;;;9.08;100.00;102559.09;5072951;28;20106;-90
2022/03/23 01:16:06;;;;;;;50.38;21.77;;;;;;;9.09;100.00;102567.81;5074014;28;20051;-91
2022/03/23 01:18:33;;;;;;;37.88;19.95;;;;;;;9.03;100.00;102568.69;5072312;28;20049;-91
2022/03/23 01:21:01;;;;;;;38.97;20.00;;;;;;;8.96;100.00;102547.78;5073141;28;20397;-90
2022/03/23 01:23:28;;;;;;;39.22;20.23;;;;;;;9.05;100.00;102551.25;5071302;28;20048;-90
2022/03/23 01:25:54;;;;;;;37.70;18.70;;;;;;;9.05;100.00;102563.47;5073687;28;20049;-91
2022/03/23 01:28:21;;;;;;;31.73;16.15;;;;;;;9.02;100.00;102548.66;5073327;28;20048;-90
2022/03/23 01:30:48;;;;;;;41.03;20.20;;;;;;;8.96;100.00;102558.22;5073845;28;20175;-90
2022/03/23 01:33:15;;;;;;;46.60;22.25;;;;;;;8.92;100.00;102545.19;5067480;28;20505;-90
2022/03/23 01:35:42;;;;;;;34.50;14.13;;;;;;;9.01;100.00;102546.03;5052968;28;20053;-90
2022/03/23 01:38:09;;;;;;;39.75;18.83;;;;;;;8.92;100.00;102537.38;5055071;28;20102;-90
2022/03/23 01:40:36;;;;;;;42.38;20.42;;;;;;;8.89;100.00;102537.38;5071491;28;20044;-90
2022/03/23 01:43:04;;;;;;;39.75;20.08;;;;;;;8.90;100.00;102540.84;5070448;28;20084;-90
2022/03/23 01:45:31;;;;;;;44.05;20.13;;;;;;;8.84;100.00;102539.09;5071760;28;20056;-90
2022/03/23 01:47:58;;;;;;;44.88;21.25;;;;;;;8.95;100.00;102541.69;5071850;28;20049;-90
2022/03/23 01:50:25;;;;;;;48.63;21.35;;;;;;;8.87;100.00;102543.44;5071732;28;20037;-91
2022/03/23 01:52:51;;;;;;;39.10;19.67;;;;;;;8.95;100.00;102538.22;5071424;28;20052;-90
2022/03/23 01:55:20;;;;;;;45.05;19.45;;;;;;;8.85;100.00;102535.63;5071657;28;20053;-91
2022/03/23 01:57:51;;;;;;;39.97;19.45;;;;;;;8.87;100.00;102527.78;5072062;28;20080;-91
2022/03/23 02:00:19;;;;;;;44.72;21.42;;;;;;;8.97;100.00;102544.31;5071621;28;20055;-91
2022/03/23 02:02:47;;;;;;;44.33;21.25;;;;;;;8.83;100.00;102529.53;5066508;28;20048;-90
2022/03/23 02:05:14;;;;;;;44.00;21.30;;;;;;;8.88;100.00;102532.13;5073353;28;20059;-91
2022/03/23 02:07:41;;;;;;;49.00;22.83;;;;;;;8.69;100.00;102506.06;5071730;28;20060;-90
2022/03/23 02:10:08;;;;;;;48.22;19.85;;;;;;;8.83;100.00;102532.13;5071156;28;20087;-91
2022/03/23 02:12:38;;;;;;;46.67;21.13;;;;;;;8.70;100.00;102526.06;5071035;28;20157;-90
2022/03/23 02:15:14;;;;;;;39.28;19.38;;;;;;;8.71;100.00;102521.69;5071694;28;20139;-89
2022/03/23 02:17:42;;;;;;;38.22;17.50;;;;;;;8.53;100.00;102523.47;5073058;28;20053;-90
2022/03/23 02:20:10;;;;;;;44.30;21.73;;;;;;;8.59;100.00;102535.66;5072104;28;20055;-90
2022/03/23 02:22:37;;;;;;;43.92;20.33;;;;;;;8.64;100.00;102528.69;5071367;28;20406;-90
2022/03/23 02:25:07;;;;;;;48.03;22.50;;;;;;;8.59;100.00;102524.31;5054585;28;20051;-90
2022/03/23 02:27:38;;;;;;;41.42;20.02;;;;;;;8.50;100.00;102509.56;5071275;28;20079;-90
2022/03/23 02:30:07;;;;;;;40.83;22.15;;;;;;;8.27;100.00;102512.13;5071352;28;20774;-90
2022/03/23 02:32:34;;;;;;;43.75;20.98;;;;;;;8.27;100.00;102484.28;5066304;28;20049;-90
2022/03/23 02:35:01;;;;;;;37.97;17.58;;;;;;;8.58;100.00;102507.78;5058903;28;20059;-90
2022/03/23 02:37:28;;;;;;;43.20;20.38;;;;;;;8.28;100.00;102490.38;5069147;28;20048;-90
2022/03/23 02:39:55;;;;;;;66.65;30.88;;;;;;;8.17;100.00;102522.56;5052954;28;20455;-89
2022/03/23 02:42:22;;;;;;;51.10;25.33;;;;;;;8.31;100.00;102519.97;5071099;28;20438;-87
2022/03/23 02:44:49;;;;;;;46.90;24.50;;;;;;;8.39;100.00;102506.03;5067296;28;20045;-90
2022/03/23 02:47:16;;;;;;;53.47;24.20;;;;;;;8.31;100.00;102503.44;5052229;28;20088;-90
2022/03/23 02:49:42;;;;;;;48.63;24.33;;;;;;;8.17;100.00;102512.13;5068042;28;20051;-91
2022/03/23 02:52:09;;;;;;;54.50;24.60;;;;;;;8.18;100.00;102516.47;5070867;28;20053;-91
2022/03/23 03:03:03;;;;;;;57.15;25.33;;;;;;;8.04;100.00;102512.09;5070975;28;20139;-89
2022/03/23 03:05:30;;;;;;;54.67;25.40;;;;;;;8.03;100.00;102502.53;5071083;28;20048;-90
2022/03/23 03:10:42;;;;;;;47.65;23.95;;;;;;;8.38;100.00;102525.19;5072366;28;20049;-90
2022/03/23 03:13:08;;;;;;;48.22;23.05;;;;;;;8.34;100.00;102509.53;5067080;28;20127;-90
2022/03/23 03:15:35;;;;;;;48.88;23.60;;;;;;;8.50;100.00;102520.88;5059654;28;20553;-90
2022/03/23 03:18:02;;;;;;;43.22;21.33;;;;;;;8.51;100.00;102500.84;5070806;28;20056;-91
2022/03/23 03:20:29;;;;;;;42.97;21.27;;;;;;;8.38;100.00;102505.16;5071209;28;20044;-91
2022/03/23 03:22:57;;;;;;;59.17;27.40;;;;;;;8.48;100.00;102508.66;5071668;28;20049;-90
2022/03/23 03:25:24;;;;;;;44.60;21.33;;;;;;;8.46;100.00;102495.59;5070177;28;20055;-88
2022/03/23 03:27:51;;;;;;;54.33;25.30;;;;;;;8.50;100.00;102501.72;5071437;28;20044;-89
2022/03/23 03:30:19;;;;;;;35.88;18.88;;;;;;;8.70;100.00;102510.41;5069881;28;20045;-90
2022/03/23 03:32:46;;;;;;;46.65;22.52;;;;;;;8.51;100.00;102498.22;5067714;28;20074;-90
2022/03/23 03:35:14;;;;;;;58.72;27.98;;;;;;;8.55;100.00;102502.56;5050967;28;20059;-92
2022/03/23 03:37:41;;;;;;;59.97;25.83;;;;;;;8.63;100.00;102521.72;5052383;28;20106;-91
2022/03/23 03:40:09;;;;;;;54.72;27.52;;;;;;;8.66;100.00;102513.91;5054847;28;20044;-91
2022/03/23 03:42:37;;;;;;;51.42;25.08;;;;;;;8.67;100.00;102506.91;5064672;28;20102;-91
2022/03/23 03:45:05;;;;;;;83.57;33.08;;;;;;;8.58;100.00;102507.78;5056199;28;20049;-91
2022/03/23 03:47:32;;;;;;;56.38;28.38;;;;;;;8.70;100.00;102512.16;5055099;28;20131;-91
2022/03/23 03:49:59;;;;;;;65.70;28.92;;;;;;;8.62;100.00;102501.69;5056061;28;20076;-91
2022/03/23 03:52:26;;;;;;;64.05;28.20;;;;;;;8.72;100.00;102506.03;5074470;28;20055;-91
2022/03/23 03:54:53;;;;;;;52.63;26.67;;;;;;;8.66;100.00;102506.06;5076172;28;20048;-90
2022/03/23 03:57:20;;;;;;;61.53;28.88;;;;;;;8.71;100.00;102499.09;5074914;28;20056;-90
2022/03/23 03:59:46;;;;;;;64.30;29.50;;;;;;;8.79;100.00;102493.84;5075496;28;20071;-91
2022/03/23 04:02:14;;;;;;;56.60;26.35;;;;;;;8.78;100.00;102504.28;5074164;28;20064;-91
2022/03/23 04:04:41;;;;;;;57.30;28.17;;;;;;;8.80;100.00;102511.25;5074385;28;20056;-90
2022/03/23 04:07:08;;;;;;;62.58;27.55;;;;;;;8.59;100.00;102488.66;5074551;28;20479;-91
2022/03/23 04:09:35;;;;;;;60.95;28.17;;;;;;;8.74;100.00;102504.28;5053963;28;20068;-90
2022/03/23 04:12:02;;;;;;;53.70;25.33;;;;;;;8.72;100.00;102495.59;5060784;28;20048;-90
2022/03/23 04:14:29;;;;;;;50.92;24.58;;;;;;;8.83;100.00;102492.09;5074941;28;20048;-90
2022/03/23 04:16:56;;;;;;;57.30;29.23;;;;;;;8.65;100.00;102504.31;5056075;28;20049;-91
2022/03/23 04:19:23;;;;;;;63.45;27.60;;;;;;;8.53;100.00;102481.72;5054138;28;20048;-91
2022/03/23 04:21:50;;;;;;;55.15;28.88;;;;;;;8.49;100.00;102487.78;5057930;28;20390;-91
2022/03/23 04:24:16;;;;;;;62.13;30.63;;;;;;;8.51;100.00;102482.56;5075061;28;20048;-91
2022/03/23 04:26:46;;;;;;;64.75;29.45;;;;;;;8.51;100.00;102493.00;5074428;28;20091;-91
2022/03/23 04:29:13;;;;;;;53.53;25.48;;;;;;;8.62;100.00;102498.22;5074185;28;20056;-91
2022/03/23 04:31:40;;;;;;;47.30;22.17;;;;;;;8.48;100.00;102464.28;5073026;28;20123;-91
2022/03/23 04:34:07;;;;;;;56.53;26.13;;;;;;;8.31;100.00;102451.25;5061414;28;20147;-91
2022/03/23 04:36:34;;;;;;;43.22;22.35;;;;;;;8.54;100.00;102479.97;5053752;28;20049;-91
2022/03/23 04:39:00;;;;;;;48.30;25.73;;;;;;;8.24;100.00;102471.25;5069137;28;20104;-92
2022/03/23 04:41:27;;;;;;;48.92;21.75;;;;;;;8.43;100.00;102482.59;5074228;28;20494;-92
2022/03/23 04:43:54;;;;;;;52.85;25.63;;;;;;;7.98;100.00;102445.13;5075178;28;20045;-91
2022/03/23 04:46:21;;;;;;;58.63;26.13;;;;;;;8.22;100.00;102479.97;5073184;28;20136;-92
2022/03/23 04:48:47;;;;;;;45.88;21.27;;;;;;;8.45;100.00;102519.13;5072639;28;20057;-92
2022/03/23 04:51:14;;;;;;;39.47;22.17;;;;;;;7.90;100.00;102486.88;5073760;28;20508;-91
2022/03/23 04:53:41;;;;;;;53.85;24.75;;;;;;;7.87;100.00;102504.25;5069703;28;20088;-90
2022/03/23 04:56:08;;;;;;;56.72;28.38;;;;;;;7.67;100.00;102471.19;5059437;28;20813;-91
2022/03/23 04:58:35;;;;;;;62.42;26.73;;;;;;;8.18;100.00;102526.06;5072561;28;20055;-91
2022/03/23 05:01:02;;;;;;;43.22;19.50;;;;;;;8.17;100.00;102535.59;5073345;28;20457;-90
2022/03/23 05:03:30;;;;;;;42.85;21.25;;;;;;;8.15;100.00;102528.66;5071967;28;20048;-91
2022/03/23 05:05:56;;;;;;;44.20;22.15;;;;;;;8.12;100.00;102526.03;5073398;28;20136;-91
2022/03/23 05:08:23;;;;;;;62.85;27.88;;;;;;;8.15;100.00;102524.28;5063908;28;20147;-91
2022/03/23 05:10:51;;;;;;;47.83;25.50;;;;;;;8.11;100.00;102514.72;5060184;28;20128;-92
2022/03/23 05:13:18;;;;;;;54.58;25.48;;;;;;;8.15;100.00;102523.44;5073087;28;20080;-91
2022/03/23 05:15:45;;;;;;;50.90;26.25;;;;;;;8.09;100.00;102524.31;5073768;28;20080;-91
2022/03/23 05:18:12;;;;;;;45.70;20.98;;;;;;;8.10;100.00;102520.81;5073730;28;20509;-92
2022/03/23 05:20:39;;;;;;;52.83;22.85;;;;;;;8.07;100.00;102519.94;5073827;28;20044;-92
2022/03/23 05:23:06;;;;;;;49.47;25.02;;;;;;;8.06;100.00;102526.03;5072710;28;20048;-92
2022/03/23 05:25:33;;;;;;;45.30;21.02;;;;;;;8.11;100.00;102516.44;5073318;28;20048;-91
2022/03/23 05:28:00;;;;;;;49.53;26.30;;;;;;;8.10;100.00;102518.19;5073021;28;20595;-91
2022/03/23 05:30:27;;;;;;;48.90;25.98;;;;;;;8.06;100.00;102521.69;5074099;28;20044;-90
2022/03/23 05:32:54;;;;;;;51.83;23.90;;;;;;;8.07;100.00;102527.75;5069659;28;20060;-91
2022/03/23 05:35:20;;;;;;;53.95;25.73;;;;;;;7.96;100.00;102517.31;5071616;28;20047;-91
2022/03/23 05:37:47;;;;;;;42.08;22.02;;;;;;;7.86;100.00;102510.31;5072623;28;20053;-90
2022/03/23 05:40:14;;;;;;;52.03;25.42;;;;;;;7.75;100.00;102512.91;5072383;28;20059;-92
2022/03/23 05:42:41;;;;;;;38.28;18.08;;;;;;;7.85;100.00;102511.22;5055040;28;20045;-92
2022/03/23 05:45:08;;;;;;;46.88;22.90;;;;;;;7.70;100.00;102528.56;5069968;28;20053;-92
2022/03/23 05:47:37;;;;;;;44.42;21.90;;;;;;;7.73;100.00;102522.47;5058793;28;20041;-91
2022/03/23 05:50:04;;;;;;;46.22;22.77;;;;;;;7.78;100.00;102520.75;5063239;28;20049;-91
2022/03/23 05:52:31;;;;;;;45.47;22.17;;;;;;;7.65;100.00;102512.03;5067016;28;20144;-91
2022/03/23 05:54:58;;;;;;;37.25;19.60;;;;;;;7.83;100.00;102511.19;5061740;28;20150;-91
2022/03/23 05:57:25;;;;;;;45.17;25.20;;;;;;;7.72;100.00;102507.69;5065250;28;20148;-91
2022/03/23 05:59:51;;;;;;;43.88;20.23;;;;;;;7.78;100.00;102511.19;5055693;28;20056;-91
2022/03/23 06:02:18;;;;;;;49.67;23.83;;;;;;;7.72;100.00;102518.09;5067102;28;20394;-91
2022/03/23 06:04:46;;;;;;;37.85;20.05;;;;;;;7.72;100.00;102508.56;5066667;28;20049;-91
2022/03/23 06:07:12;;;;;;;45.10;21.63;;;;;;;7.84;100.00;102525.09;5069314;28;20059;-90
2022/03/23 06:09:39;;;;;;;44.45;22.83;;;;;;;7.83;100.00;102516.41;5064188;28;20055;-91
2022/03/23 06:12:11;;;;;;;50.83;24.83;;;;;;;7.74;100.00;102517.28;5062287;28;20479;-92
2022/03/23 06:14:42;;;;;;;51.33;25.75;;;;;;;7.65;100.00;102521.56;5056669;28;20410;-91
2022/03/23 06:17:12;;;;;;;49.03;22.83;;;;;;;7.83;100.00;102528.59;5067738;28;20049;-91
2022/03/23 06:19:39;;;;;;;54.38;26.20;;;;;;;7.52;100.00;102486.78;5063766;28;20102;-91
2022/03/23 06:22:05;;;;;;;47.63;24.75;;;;;;;7.71;100.00;102516.38;5060307;28;20135;-91
2022/03/23 06:24:32;;;;;;;53.10;25.77;;;;;;;7.60;100.00;102517.22;5057937;28;20044;-90
2022/03/23 06:26:59;;;;;;;45.83;24.00;;;;;;;7.60;100.00;102529.41;5062937;28;20049;-90
2022/03/23 06:29:26;;;;;;;46.58;24.42;;;;;;;7.58;100.00;102536.34;5069343;28;20044;-91
2022/03/23 06:31:53;;;;;;;47.45;25.00;;;;;;;7.56;100.00;102528.50;5070645;28;20041;-92
2022/03/23 06:34:21;;;;;;;50.78;24.63;;;;;;;7.59;100.00;102538.06;5062010;28;20135;-91
2022/03/23 06:36:48;;;;;;;54.05;25.05;;;;;;;7.71;100.00;102534.63;5068395;28;20921;-90
2022/03/23 06:39:14;;;;;;;46.22;22.38;;;;;;;7.81;100.00;102525.97;5061172;28;20045;-90
2022/03/23 06:41:41;;;;;;;50.30;25.33;;;;;;;7.75;100.00;102532.03;5061079;28;20047;-90
2022/03/23 06:44:08;;;;;;;54.70;26.35;;;;;;;7.79;100.00;102520.75;5063293;28;20079;-89
2022/03/23 06:46:36;;;;;;;46.78;24.52;;;;;;;7.94;100.00;102514.69;5065582;28;20044;-90
2022/03/23 06:49:05;;;;;;;47.65;23.98;;;;;;;8.08;100.00;102524.28;5061466;28;20414;-92
2022/03/23 06:51:33;;;;;;;51.83;25.52;;;;;;;8.07;100.00;102499.06;5063843;28;20550;-92
2022/03/23 06:53:59;;;;;;;51.05;25.33;;;;;;;8.31;100.00;102530.41;5066310;28;20049;-92
2022/03/23 06:56:26;;;;;;;54.95;27.38;;;;;;;8.15;100.00;102526.91;5062605;28;20052;-89
2022/03/23 06:58:53;;;;;;;57.30;29.55;;;;;;;8.24;100.00;102514.75;5069159;28;20651;-91
2022/03/23 07:01:20;;;;;;;52.45;29.48;;;;;;;8.66;100.00;102520.88;5057879;28;20045;-88
2022/03/23 07:03:48;;;;;;;63.97;30.48;;;;;;;8.66;100.00;102526.09;5062495;28;20049;-88
2022/03/23 07:06:16;;;;;;;66.50;35.05;;;;;;;8.91;100.00;102526.91;5058790;28;20076;-89
2022/03/23 07:11:30;;;;;;;56.45;28.33;;;;;;;9.11;100.00;102509.41;5062273;28;20068;-90
2022/03/23 07:13:57;;;;;;;53.67;28.13;;;;;;;9.18;100.00;102515.50;5064900;28;20143;-90
2022/03/23 07:16:28;;;;;;;62.47;30.42;;;;;;;9.47;100.00;102538.03;5065114;28;20249;-90
2022/03/23 07:18:55;;;;;;;47.00;26.45;;;;;;;9.82;100.00;102539.63;5067244;28;20137;-90
2022/03/23 07:21:21;;;;;;;45.50;23.77;;;;;;;10.00;100.00;102534.28;5068860;28;20049;-90
2022/03/23 07:23:49;;;;;;;48.38;26.67;;;;;;;9.92;100.00;102519.53;5066695;28;20084;-90
2022/03/23 07:26:16;;;;;;;49.95;25.98;;;;;;;10.07;100.00;102524.63;5064530;28;20139;-90
2022/03/23 07:28:44;;;;;;;60.72;30.77;;;;;;;10.04;100.00;102508.97;5065147;28;20184;-90
2022/03/23 07:31:10;;;;;;;82.15;42.63;;;;;;;10.13;100.00;102523.72;5065450;28;20060;-91
2022/03/23 07:33:37;;;;;;;49.72;23.02;;;;;;;10.57;100.00;102515.56;5071776;28;20044;-90
2022/03/23 07:36:05;;;;;;;53.10;27.10;;;;;;;10.75;100.00;102534.63;5063285;28;20070;-92
2022/03/23 07:38:31;;;;;;;59.38;31.00;;;;;;;10.74;100.00;102538.09;5075983;28;20072;-90
2022/03/23 07:40:58;;;;;;;57.40;30.77;;;;;;;10.92;100.00;102534.44;5063615;28;20048;-92
2022/03/23 07:43:25;;;;;;;46.58;23.35;;;;;;;11.15;100.00;102528.94;5062898;28;20128;-88
2022/03/23 07:45:52;;;;;;;58.00;31.05;;;;;;;11.23;100.00;102539.34;5066562;28;20063;-91
2022/03/23 07:48:20;;;;;;;53.60;27.50;;;;;;;11.13;100.00;102526.31;5070694;28;20521;-91
2022/03/23 07:50:51;;;;;;;50.47;27.25;;;;;;;11.39;100.00;102522.53;5073300;28;20052;-90
2022/03/23 07:53:18;;;;;;;49.08;24.88;;;;;;;11.57;100.00;102538.03;5070545;28;20068;-91
2022/03/23 07:55:45;;;;;;;53.70;28.25;;;;;;;11.23;100.00;102502.66;5072051;28;20053;-91
2022/03/23 07:58:12;;;;;;;46.22;27.52;;;;;;;11.58;100.00;102542.41;5069795;28;20063;-89
2022/03/23 08:00:43;;;;;;;57.15;32.83;;;;;;;11.70;100.00;102537.88;5072655;28;20125;-91
2022/03/23 08:03:10;;;;;;;49.67;28.35;;;;;;;11.99;100.00;102542.75;5072522;28;20055;-91
2022/03/23 08:05:38;;;;;;;51.08;29.77;;;;;;;11.89;100.00;102525.38;5075738;28;20048;-91
2022/03/23 08:08:07;;;;;;;58.50;33.17;;;;;;;11.92;100.00;102547.22;5074934;28;20049;-92
2022/03/23 08:10:35;;;;;;;46.42;27.52;;;;;;;12.13;100.00;102542.56;5073797;28;20063;-91
2022/03/23 08:13:03;;;;;;;51.05;30.25;;;;;;;12.12;100.00;102543.44;5072655;28;20478;-91
2022/03/23 08:15:30;;;;;;;60.47;33.72;;;;;;;11.56;100.00;102538.94;5073770;28;20079;-91
2022/03/23 08:18:01;;;;;;;75.25;40.53;;;;;;;11.59;100.00;102545.88;5073301;28;20063;-91
2022/03/23 08:20:35;;;;;;;51.97;29.73;;;;;;;12.12;100.00;102546.06;5074381;28;20048;-90
2022/03/23 08:23:05;;;;;;;69.50;38.17;;;;;;;12.70;100.00;102553.00;5073989;28;20041;-90
2022/03/23 08:25:33;;;;;;;55.08;32.60;;;;;;;12.04;100.00;102555.78;5073079;28;20131;-91
2022/03/23 08:28:03;;;;;;;44.15;25.05;;;;;;;12.69;100.00;102545.97;5073102;28;20049;-92
2022/03/23 08:30:30;;;;;;;68.20;37.58;;;;;;;12.46;100.00;102548.16;5073076;28;20078;-91
2022/03/23 08:32:56;;;;;;;76.93;44.25;;;;;;;11.95;100.00;102559.41;5068589;28;20045;-91
2022/03/23 08:35:26;;;;;;;56.30;31.27;;;;;;;12.05;100.00;102544.41;5069942;28;20066;-91
2022/03/23 08:37:53;;;;;;;45.42;27.35;;;;;;;12.32;100.00;102566.75;5063655;28;20878;-91
2022/03/23 08:40:20;;;;;;;49.97;29.20;;;;;;;12.58;100.00;102558.44;5072247;28;20045;-91
2022/03/23 08:42:47;;;;;;;56.28;30.23;;;;;;;13.15;100.00;102556.56;5070679;28;20050;-91
2022/03/23 08:45:16;;;;;;;53.97;31.65;;;;;;;13.21;100.00;102544.16;5074547;28;20055;-92
2022/03/23 08:47:44;;;;;;;54.10;31.48;;;;;;;13.35;100.00;102548.28;5059657;28;20044;-91
2022/03/23 08:50:12;;;;;;;48.22;28.70;;;;;;;13.22;100.00;102548.50;5073462;28;20129;-91
2022/03/23 08:52:41;;;;;;;43.20;25.88;;;;;;;13.61;100.00;102553.03;5071160;28;20046;-89
2022/03/23 08:55:19;;;;;;;50.70;29.00;;;;;;;13.39;100.00;102544.72;5072903;28;20048;-89
2022/03/23 08:57:47;;;;;;;51.63;28.70;;;;;;;13.65;100.00;102555.56;5072441;28;20474;-91
2022/03/23 09:00:15;;;;;;;43.90;26.33;;;;;;;13.66;100.00;102557.28;5072421;28;20066;-92
2022/03/23 09:02:42;;;;;;;56.90;35.42;;;;;;;13.26;100.00;102552.84;5067979;28;20406;-91
2022/03/23 09:05:11;;;;;;;53.58;29.42;;;;;;;13.14;100.00;102558.34;5053084;28;20072;-91
2022/03/23 09:07:38;;;;;;;77.80;43.00;;;;;;;12.89;100.00;102550.00;5068570;28;20459;-91
2022/03/23 09:10:08;;;;;;;86.03;45.97;;;;;;;12.38;100.00;102548.28;5089930;28;20102;-89
2022/03/23 09:12:36;;;;;;;70.60;39.40;;;;;;;12.40;100.00;102540.38;5072578;28;20056;-91
2022/03/23 09:15:08;;;;;;;67.82;35.75;;;;;;;12.68;100.00;102559.19;5074823;28;20053;-90
2022/03/23 09:17:36;;;;;;;61.80;35.78;;;;;;;12.63;100.00;102554.00;5073089;28;20056;-90
2022/03/23 09:20:07;;;;;;;59.80;33.75;;;;;;;12.48;100.00;102551.63;5089897;28;20049;-90
2022/03/23 09:22:34;;;;;;;69.72;36.80;;;;;;;12.98;100.00;102547.25;5071547;28;20048;-91
2022/03/23 09:25:06;;;;;;;56.30;31.38;;;;;;;13.22;100.00;102539.75;5072486;28;20056;-88
2022/03/23 09:27:34;;;;;;;75.07;37.13;;;;;;;12.72;100.00;102537.19;5073072;28;20045;-90
2022/03/23 09:30:03;;;;;;;69.90;37.95;;;;;;;12.69;100.00;102540.72;5072359;28;20053;-89
2022/03/23 09:32:29;;;;;;;68.70;38.00;;;;;;;12.80;100.00;102545.81;5066698;28;20135;-90
2022/03/23 09:34:56;;;;;;;56.00;32.00;;;;;;;13.22;100.00;102547.66;5070314;28;20057;-90
2022/03/23 09:40:09;;;;;;;58.72;31.02;;;;;;;13.38;100.00;102535.09;5074065;28;20501;-90
2022/03/23 09:42:36;;;;;;;49.25;26.67;;;;;;;14.18;100.00;102550.00;5070988;28;20059;-90
2022/03/23 09:45:04;;;;;;;63.65;35.28;;;;;;;13.52;100.00;102537.44;5075115;28;20052;-91
2022/03/23 09:47:31;;;;;;;60.50;31.98;;;;;;;13.69;100.00;102548.47;5056153;28;20052;-91
2022/03/23 09:49:58;;;;;;;72.82;41.55;;;;;;;13.77;100.00;102548.28;5073255;28;20470;-93
2022/03/23 09:52:25;;;;;;;69.93;42.38;;;;;;;13.78;100.00;102553.53;5074964;28;20040;-93
2022/03/23 09:54:54;;;;;;;72.50;37.50;;;;;;;14.07;100.00;102540.59;5074405;28;20094;-93
2022/03/23 09:57:21;;;;;;;71.75;40.70;;;;;;;13.70;100.00;102552.81;5061044;28;20072;-89
2022/03/23 09:59:47;;;;;;;58.45;31.38;;;;;;;14.21;100.00;102543.78;5071219;28;20046;-88
2022/03/23 10:03:12;;;;;;;86.32;42.70;;;;;;;13.94;100.00;102558.47;5067091;28;20044;-91
2022/03/23 10:06:01;;;;;;;62.58;35.25;;;;;;;14.36;100.00;102559.22;5052047;28;20075;-87
2022/03/23 10:09:10;;;;;;;59.67;33.60;;;;;;;14.66;100.00;102556.75;5063832;28;20546;-88
2022/03/23 10:12:14;;;;;;;79.50;40.25;;;;;;;14.53;100.00;102555.28;5055845;28;20139;-88
2022/03/23 10:15:09;;;;;;;66.40;35.83;;;;;;;14.18;100.00;102555.25;5071803;28;20063;-88
2022/03/23 10:17:44;;;;;;;59.92;32.97;;;;;;;14.41;100.00;102557.34;5070953;28;20048;-89
2022/03/23 10:20:12;;;;;;;80.15;40.97;;;;;;;14.31;100.00;102547.91;5071624;28;20052;-89
2022/03/23 10:22:52;;;;;;;76.10;42.63;;;;;;;14.50;100.00;102550.97;5087403;28;20067;-88
2022/03/23 10:25:27;;;;;;;75.65;40.00;;;;;;;14.54;100.00;102555.25;5070955;28;20052;-87
2022/03/23 10:28:15;;;;;;;79.72;41.85;;;;;;;15.05;100.00;102556.59;5071498;28;20048;-89
2022/03/23 10:30:43;;;;;;;70.93;37.97;;;;;;;14.43;100.00;102481.72;5071623;28;20052;-88
2022/03/23 10:33:19;;;;;;;60.88;30.65;;;;;;;14.80;100.00;102508.91;5070013;28;20051;-88
2022/03/23 10:35:46;;;;;;;63.47;32.92;;;;;;;15.15;100.00;102536.09;5072403;28;20055;-89
2022/03/23 10:38:14;;;;;;;65.50;37.20;;;;;;;15.14;100.00;102548.41;5069020;28;20055;-89
2022/03/23 10:40:43;;;;;;;50.17;28.27;;;;;;;15.45;100.00;102544.03;5072725;28;20543;-88
2022/03/23 10:43:12;;;;;;;43.45;25.27;;;;;;;15.53;100.00;102548.19;5069865;28;20132;-89
2022/03/23 10:45:39;;;;;;;51.80;27.42;;;;;;;15.76;100.00;102546.66;5070621;28;20056;-88
2022/03/23 10:48:13;;;;;;;45.30;22.65;;;;;;;15.33;100.00;102546.13;5070526;28;20594;-89
2022/03/23 10:50:57;;;;;;;50.42;27.67;;;;;;;15.23;100.00;102535.84;5056186;28;20049;-89
2022/03/23 10:53:36;;;;;;;44.22;23.67;;;;;;;15.49;100.00;102514.00;5072650;28;20082;-89
2022/03/23 10:56:04;;;;;;;59.30;32.38;;;;;;;14.87;100.00;102521.00;5072863;28;20074;-89
2022/03/23 10:58:32;;;;;;;48.63;28.00;;;;;;;15.25;100.00;102547.25;5080984;28;20409;-89
2022/03/23 11:01:01;;;;;;;58.65;33.00;;;;;;;15.45;100.00;102541.41;5072733;28;20071;-88
2022/03/23 11:03:49;;;;;;;48.40;26.17;;;;;;;15.71;100.00;102537.97;5071288;28;20098;-89
2022/03/23 11:06:25;;;;;;;41.65;22.30;;;;;;;16.00;100.00;102538.88;5074045;28;20139;-89
2022/03/23 11:08:52;;;;;;;46.13;24.10;;;;;;;15.86;100.00;102534.88;5074877;28;20405;-89
2022/03/23 11:16:51;;;;;;;71.65;34.97;;;;;;;15.49;100.00;102530.72;5075136;28;20055;-89
2022/03/23 11:19:23;;;;;;;53.28;29.08;;;;;;;15.56;100.00;102544.56;5073983;28;20080;-90
2022/03/23 11:22:04;;;;;;;69.60;34.50;;;;;;;15.26;100.00;102557.75;5074473;28;20084;-89
2022/03/23 11:24:40;;;;;;;47.17;26.67;;;;;;;15.72;100.00;102534.41;5074932;28;20104;-89
2022/03/23 11:27:10;;;;;;;52.10;29.83;;;;;;;15.57;100.00;102526.06;5074336;28;20074;-89
2022/03/23 11:29:39;;;;;;;51.22;28.50;;;;;;;15.79;100.00;102512.22;5074902;28;20048;-89
2022/03/23 11:32:14;;;;;;;54.65;29.00;;;;;;;16.11;100.00;102539.38;5073090;28;20052;-89
2022/03/23 11:34:47;;;;;;;51.45;26.08;;;;;;;16.28;100.00;102529.13;5073613;28;20659;-85
2022/03/23 11:37:17;;;;;;;48.42;25.95;;;;;;;16.46;100.00;102537.38;5074258;28;20066;-89